Time;durP1;ratioP1;P1;durP2;ratioP2;P2;SDS_P1;SDS_P2;PMS_P1;PMS_P2;Temp;Humidity;BMP_temperature;BMP_pressure;BME280_temperature;BME280_humidity;BME280_pressure;Samples;Min_cycle;Max_cycle;Signal;HPM_P1;HPM_P2
2021/07/21 00:00:36;;;;;;;9.35;6.88;;;14.30;99.90;;;;;;5051067;28;20047;-67
2021/07/21 00:03:01;;;;;;;7.43;6.45;;;14.30;99.90;;;;;;5052730;28;20109;-67
2021/07/21 00:05:27;;;;;;;7.15;6.32;;;14.20;99.90;;;;;;5068646;28;20120;-67
2021/07/21 00:07:57;;;;;;;7.63;6.75;;;14.20;99.90;;;;;;5052729;28;20048;-67
2021/07/21 00:10:25;;;;;;;8.18;6.43;;;14.20;99.90;;;;;;5052989;28;20041;-67
2021/07/21 00:15:39;;;;;;;9.10;7.50;;;14.10;99.90;;;;;;5050449;28;20045;-67
2021/07/21 00:18:19;;;;;;;9.60;7.55;;;14.10;99.90;;;;;;5052722;28;20123;-67
2021/07/21 00:20:48;;;;;;;10.25;7.95;;;14.10;99.90;;;;;;5051691;28;20048;-65
2021/07/21 00:23:15;;;;;;;9.55;7.90;;;14.10;99.90;;;;;;5073033;28;20497;-66
2021/07/21 00:25:40;;;;;;;10.00;8.43;;;14.10;99.90;;;;;;5063404;28;20090;-67
2021/07/21 00:28:06;;;;;;;8.68;7.78;;;14.10;99.90;;;;;;5052931;28;20044;-67
2021/07/21 00:30:32;;;;;;;9.45;7.45;;;14.00;99.90;;;;;;5052292;28;20045;-67
2021/07/21 00:32:57;;;;;;;10.02;8.43;;;14.00;99.90;;;;;;5052597;28;20091;-66
2021/07/21 00:35:23;;;;;;;10.50;8.10;;;14.00;99.90;;;;;;5050553;28;20155;-67
2021/07/21 00:37:49;;;;;;;10.88;7.78;;;14.00;99.90;;;;;;5049346;28;20033;-67
2021/07/21 00:40:16;;;;;;;9.65;7.90;;;13.90;99.90;;;;;;5050879;28;20057;-67
2021/07/21 00:42:43;;;;;;;11.43;7.88;;;13.90;99.90;;;;;;5051987;28;20033;-67
2021/07/21 00:45:09;;;;;;;9.35;8.00;;;13.90;99.90;;;;;;5052864;28;20041;-67
2021/07/21 00:47:35;;;;;;;9.85;8.02;;;13.90;99.90;;;;;;5071923;28;20043;-67
2021/07/21 00:50:01;;;;;;;9.85;7.88;;;13.90;99.90;;;;;;5067115;28;20033;-66
2021/07/21 00:52:26;;;;;;;9.55;8.02;;;13.80;99.90;;;;;;5052141;28;20098;-67
2021/07/21 00:54:53;;;;;;;9.48;7.38;;;13.80;99.90;;;;;;5046154;28;20036;-66
2021/07/21 00:57:18;;;;;;;9.13;8.07;;;13.70;99.90;;;;;;5052187;28;20040;-66
2021/07/21 00:59:46;;;;;;;10.40;8.05;;;13.70;99.90;;;;;;5047858;28;20036;-66
2021/07/21 01:02:11;;;;;;;10.30;7.57;;;13.70;99.90;;;;;;5050712;28;20051;-66
2021/07/21 01:04:38;;;;;;;8.57;7.65;;;13.70;99.90;;;;;;5052103;28;20638;-65
2021/07/21 01:07:07;;;;;;;8.55;7.55;;;13.70;99.90;;;;;;5051494;28;20037;-66
2021/07/21 01:09:36;;;;;;;9.80;7.40;;;13.60;99.90;;;;;;5051990;28;20044;-66
2021/07/21 01:12:27;;;;;;;8.77;6.88;;;13.60;99.90;;;;;;5037414;28;20360;-66
2021/07/21 01:15:07;;;;;;;8.18;6.80;;;13.60;99.90;;;;;;5047976;28;20076;-66
2021/07/21 01:18:02;;;;;;;7.32;6.43;;;13.50;99.90;;;;;;5051629;28;20055;-66
2021/07/21 01:20:47;;;;;;;9.25;7.05;;;13.50;99.90;;;;;;5046894;28;20092;-66
2021/07/21 01:23:36;;;;;;;9.50;7.63;;;13.50;99.90;;;;;;5051884;28;20045;-66
2021/07/21 01:26:47;;;;;;;8.98;7.43;;;13.50;99.90;;;;;;5050185;28;20037;-66
2021/07/21 01:29:17;;;;;;;9.10;7.20;;;13.50;99.90;;;;;;5012610;28;20187;-65
2021/07/21 01:31:46;;;;;;;9.38;7.45;;;13.40;99.90;;;;;;5045933;28;20072;-66
2021/07/21 01:34:13;;;;;;;10.45;8.43;;;13.40;99.90;;;;;;5051653;28;20037;-65
2021/07/21 01:36:49;;;;;;;8.70;7.80;;;13.50;99.90;;;;;;5066610;28;20041;-66
2021/07/21 01:39:16;;;;;;;10.60;8.93;;;13.50;99.90;;;;;;5051671;28;20036;-66
2021/07/21 01:41:47;;;;;;;9.70;8.02;;;13.40;99.90;;;;;;5051100;28;20128;-66
2021/07/21 01:44:18;;;;;;;9.68;7.70;;;13.40;99.90;;;;;;5049472;28;20482;-66
2021/07/21 01:46:46;;;;;;;9.97;7.13;;;13.40;99.90;;;;;;5065833;28;20040;-66
2021/07/21 01:49:13;;;;;;;11.45;7.18;;;13.50;99.90;;;;;;5071282;28;20037;-66
2021/07/21 01:51:43;;;;;;;8.98;7.45;;;13.50;99.90;;;;;;5055297;28;20044;-66
2021/07/21 01:54:10;;;;;;;7.93;6.45;;;13.50;99.90;;;;;;5051289;28;20049;-66
2021/07/21 01:56:36;;;;;;;6.18;5.45;;;13.60;99.90;;;;;;5049418;28;20039;-66
2021/07/21 01:59:05;;;;;;;4.43;4.03;;;13.60;99.90;;;;;;5069808;28;20040;-66
2021/07/21 02:01:33;;;;;;;4.50;3.80;;;13.60;99.90;;;;;;5045974;28;20037;-66
2021/07/21 02:04:00;;;;;;;3.90;3.60;;;13.60;99.90;;;;;;5051012;28;20159;-66
2021/07/21 02:06:29;;;;;;;3.90;3.60;;;13.70;99.90;;;;;;5050933;28;20051;-66
2021/07/21 02:08:57;;;;;;;4.30;3.90;;;13.70;99.90;;;;;;5051054;28;20041;-66
2021/07/21 02:11:24;;;;;;;4.75;4.28;;;13.80;99.90;;;;;;5050747;28;20049;-66
2021/07/21 02:13:51;;;;;;;5.25;3.78;;;13.90;99.90;;;;;;5050319;28;20061;-66
2021/07/21 02:16:18;;;;;;;4.43;3.90;;;13.90;99.90;;;;;;5049479;28;20033;-66
2021/07/21 02:18:47;;;;;;;5.50;5.00;;;14.00;99.90;;;;;;5049646;28;20051;-66
2021/07/21 02:21:14;;;;;;;7.88;6.10;;;14.00;99.90;;;;;;5050753;28;20126;-66
2021/07/21 02:23:41;;;;;;;8.07;6.25;;;14.00;99.90;;;;;;5051002;28;20522;-66
2021/07/21 02:26:07;;;;;;;7.63;6.65;;;14.10;99.90;;;;;;5050851;28;20583;-66
2021/07/21 02:28:34;;;;;;;7.53;6.20;;;14.10;99.90;;;;;;5050823;28;20037;-67
2021/07/21 02:31:07;;;;;;;7.13;5.80;;;14.10;99.90;;;;;;5049468;28;20477;-67
2021/07/21 02:33:43;;;;;;;7.50;5.95;;;14.10;99.90;;;;;;5052730;28;20673;-66
2021/07/21 02:36:08;;;;;;;7.35;5.90;;;14.10;99.90;;;;;;5054618;28;20454;-66
2021/07/21 02:38:35;;;;;;;8.18;7.25;;;14.10;99.90;;;;;;5053473;28;20041;-67
2021/07/21 02:41:01;;;;;;;9.73;7.18;;;14.10;99.90;;;;;;5054275;28;20053;-67
2021/07/21 02:43:26;;;;;;;8.60;7.70;;;14.10;99.90;;;;;;5053890;28;20032;-66
2021/07/21 02:45:53;;;;;;;10.07;7.32;;;14.10;99.90;;;;;;5057928;28;20047;-67
2021/07/21 02:48:19;;;;;;;8.75;7.85;;;14.00;99.90;;;;;;5055234;28;20475;-67
2021/07/21 02:50:48;;;;;;;11.55;7.90;;;14.00;99.90;;;;;;5054992;28;20043;-66
2021/07/21 02:53:21;;;;;;;8.30;7.15;;;14.00;99.90;;;;;;5051208;28;20041;-67
2021/07/21 02:55:52;;;;;;;8.40;7.22;;;13.90;99.90;;;;;;5053881;28;20044;-67
2021/07/21 02:58:27;;;;;;;9.23;7.80;;;14.00;99.90;;;;;;5054003;28;20147;-66
2021/07/21 03:00:57;;;;;;;11.27;7.93;;;14.00;99.90;;;;;;5050634;28;20038;-66
2021/07/21 03:03:24;;;;;;;8.30;7.43;;;14.00;99.90;;;;;;5053407;28;20384;-66
2021/07/21 03:05:55;;;;;;;8.70;7.32;;;14.00;99.90;;;;;;5054077;28;20037;-66
2021/07/21 03:08:29;;;;;;;11.27;6.95;;;14.00;99.90;;;;;;5052778;28;20033;-66
2021/07/21 03:10:57;;;;;;;9.05;7.53;;;14.00;99.90;;;;;;5062547;28;20041;-67
2021/07/21 03:13:29;;;;;;;10.10;7.60;;;14.00;99.90;;;;;;5053861;28;20403;-67
2021/07/21 03:15:55;;;;;;;8.57;7.22;;;14.00;99.90;;;;;;5049944;28;20418;-67
2021/07/21 03:18:25;;;;;;;11.48;8.93;;;14.10;99.90;;;;;;5034187;28;20846;-67
2021/07/21 03:20:54;;;;;;;11.27;9.68;;;14.10;99.90;;;;;;5037190;28;20178;-66
2021/07/21 03:23:23;;;;;;;12.38;10.02;;;13.70;99.90;;;;;;5053700;28;20033;-66
2021/07/21 03:25:52;;;;;;;12.55;10.00;;;13.70;99.90;;;;;;5051110;28;20048;-66
2021/07/21 03:28:18;;;;;;;14.38;11.23;;;13.70;99.90;;;;;;5052336;28;20485;-66
2021/07/21 03:30:44;;;;;;;13.20;10.18;;;13.60;99.90;;;;;;5053745;28;20037;-67
2021/07/21 03:33:11;;;;;;;11.50;8.82;;;13.60;99.90;;;;;;5053539;28;20037;-67
2021/07/21 03:35:37;;;;;;;12.95;9.95;;;13.60;99.90;;;;;;5053784;28;20037;-66
2021/07/21 03:38:04;;;;;;;11.98;9.27;;;13.70;99.90;;;;;;5053529;28;20036;-66
2021/07/21 03:40:31;;;;;;;11.30;8.77;;;13.70;99.90;;;;;;5053059;28;20076;-66
2021/07/21 03:42:58;;;;;;;12.88;9.10;;;13.80;99.90;;;;;;5049052;28;20091;-66
2021/07/21 03:45:29;;;;;;;12.55;10.10;;;13.90;99.90;;;;;;5056634;28;20059;-66
2021/07/21 03:47:55;;;;;;;11.88;9.82;;;14.00;99.90;;;;;;5072489;28;20068;-66
2021/07/21 03:50:24;;;;;;;12.98;9.52;;;14.10;99.90;;;;;;5059729;28;20045;-66
2021/07/21 03:52:52;;;;;;;10.75;8.57;;;14.10;99.90;;;;;;5052366;28;20049;-66
2021/07/21 03:55:21;;;;;;;11.40;9.13;;;14.20;99.90;;;;;;5051905;28;20734;-67
2021/07/21 03:57:47;;;;;;;11.75;9.60;;;14.30;99.90;;;;;;5051437;28;20041;-67
2021/07/21 04:00:16;;;;;;;12.55;10.13;;;14.30;99.90;;;;;;5037245;28;20049;-66
2021/07/21 04:02:45;;;;;;;12.70;9.98;;;14.40;99.90;;;;;;5044206;28;20137;-66
2021/07/21 04:05:14;;;;;;;16.38;10.80;;;14.40;99.90;;;;;;5051228;28;20059;-66
2021/07/21 04:07:41;;;;;;;13.18;9.73;;;14.40;99.90;;;;;;5052921;28;20083;-66
2021/07/21 04:10:08;;;;;;;12.20;9.40;;;14.50;99.90;;;;;;5052948;28;20068;-67
2021/07/21 04:12:36;;;;;;;16.42;10.15;;;14.50;99.90;;;;;;5052295;28;20045;-66
2021/07/21 04:15:02;;;;;;;13.15;10.05;;;14.60;99.90;;;;;;5049571;28;20037;-67
2021/07/21 04:17:32;;;;;;;12.23;9.75;;;14.60;99.90;;;;;;5047505;28;20045;-66
2021/07/21 04:20:00;;;;;;;12.43;9.55;;;14.70;99.90;;;;;;5051197;28;20397;-67
2021/07/21 04:22:27;;;;;;;12.98;10.35;;;14.70;99.90;;;;;;5052116;28;20033;-68
2021/07/21 04:24:56;;;;;;;14.70;10.15;;;14.80;99.90;;;;;;5051840;28;20048;-67
2021/07/21 04:27:23;;;;;;;14.18;10.23;;;14.80;99.90;;;;;;5052096;28;20062;-67
2021/07/21 04:29:50;;;;;;;13.90;10.18;;;14.80;99.90;;;;;;5051796;28;20094;-67
2021/07/21 04:32:17;;;;;;;14.70;10.65;;;14.90;99.90;;;;;;5049485;28;20114;-66
2021/07/21 04:34:44;;;;;;;14.43;10.20;;;14.90;99.90;;;;;;5050933;28;20047;-67
2021/07/21 04:37:10;;;;;;;13.85;11.02;;;14.90;99.90;;;;;;5048851;28;20419;-67
2021/07/21 04:39:36;;;;;;;12.35;9.75;;;15.00;99.90;;;;;;5048928;28;20098;-67
2021/07/21 04:42:03;;;;;;;11.48;9.70;;;15.00;99.90;;;;;;5051694;28;20052;-67
2021/07/21 04:44:30;;;;;;;17.52;9.73;;;15.00;99.90;;;;;;5067247;28;20132;-67
2021/07/21 04:46:58;;;;;;;12.88;9.82;;;15.10;99.90;;;;;;5066985;28;20459;-67
2021/07/21 04:49:25;;;;;;;15.05;10.00;;;15.10;99.90;;;;;;5051981;28;20516;-67
2021/07/21 04:51:54;;;;;;;12.45;9.93;;;15.20;99.90;;;;;;5056719;28;20645;-67
2021/07/21 04:54:20;;;;;;;12.57;9.93;;;15.20;99.90;;;;;;5050128;28;20451;-67
2021/07/21 04:56:46;;;;;;;13.98;10.27;;;15.30;99.90;;;;;;5050338;28;20047;-67
2021/07/21 04:59:12;;;;;;;13.57;10.70;;;15.30;99.90;;;;;;5051281;28;20515;-67
2021/07/21 05:01:38;;;;;;;12.32;10.02;;;15.30;99.90;;;;;;5051489;28;20048;-67
2021/07/21 05:04:04;;;;;;;11.73;9.43;;;15.40;99.90;;;;;;5047955;28;20094;-67
2021/07/21 05:06:34;;;;;;;10.90;9.75;;;15.50;99.90;;;;;;5066688;28;20037;-67
2021/07/21 05:08:59;;;;;;;10.82;9.60;;;15.60;99.90;;;;;;5052129;28;20048;-67
2021/07/21 05:11:25;;;;;;;10.88;9.38;;;15.70;99.90;;;;;;5051083;28;20033;-67
2021/07/21 05:13:51;;;;;;;12.55;10.13;;;15.80;99.90;;;;;;5051542;28;20123;-67
2021/07/21 05:16:17;;;;;;;12.45;9.85;;;15.90;99.90;;;;;;5050747;28;20082;-67
2021/07/21 05:18:46;;;;;;;12.82;9.90;;;16.00;99.90;;;;;;5050065;28;20052;-67
2021/07/21 05:21:12;;;;;;;12.23;9.25;;;16.10;99.90;;;;;;5049534;28;20041;-67
2021/07/21 05:23:39;;;;;;;11.75;9.32;;;16.30;99.90;;;;;;5050476;28;20041;-67
2021/07/21 05:26:07;;;;;;;13.10;9.98;;;16.40;99.90;;;;;;5049031;28;20040;-69
2021/07/21 05:28:38;;;;;;;13.57;9.60;;;16.60;99.90;;;;;;5049004;28;20494;-70
2021/07/21 05:31:03;;;;;;;13.15;10.15;;;16.80;99.90;;;;;;5050211;28;20045;-71
2021/07/21 05:33:29;;;;;;;12.50;10.23;;;17.00;99.90;;;;;;5030947;28;20402;-71
2021/07/21 05:35:55;;;;;;;12.13;10.00;;;17.10;99.90;;;;;;5044883;28;20086;-71
2021/07/21 05:38:21;;;;;;;11.85;10.48;;;17.30;99.90;;;;;;5049178;28;20416;-70
2021/07/21 05:40:46;;;;;;;12.13;9.95;;;17.40;99.90;;;;;;5050088;28;20080;-69
2021/07/21 05:43:12;;;;;;;11.65;10.15;;;17.50;99.90;;;;;;5049862;28;20041;-70
2021/07/21 05:45:38;;;;;;;12.38;10.00;;;17.60;99.90;;;;;;5050460;28;20087;-70
2021/07/21 05:48:04;;;;;;;11.25;10.07;;;17.80;99.90;;;;;;5050576;28;20119;-70
2021/07/21 05:50:30;;;;;;;11.98;10.38;;;17.90;99.90;;;;;;5051122;28;20040;-71
2021/07/21 05:52:57;;;;;;;12.90;10.18;;;18.20;99.90;;;;;;5063053;28;20052;-71
2021/07/21 05:55:23;;;;;;;10.85;9.73;;;18.40;99.90;;;;;;5049715;28;20044;-71
2021/07/21 05:57:48;;;;;;;13.73;9.48;;;18.60;99.90;;;;;;5048451;28;20163;-69
2021/07/21 06:00:14;;;;;;;11.60;9.48;;;18.90;99.90;;;;;;5051115;28;20502;-69
2021/07/21 06:02:40;;;;;;;11.65;9.73;;;19.40;99.90;;;;;;5049150;28;20060;-70
2021/07/21 06:05:06;;;;;;;12.50;9.65;;;19.90;99.90;;;;;;5045674;28;20430;-70
2021/07/21 06:07:32;;;;;;;11.23;9.57;;;20.20;99.90;;;;;;5050357;28;20033;-70
2021/07/21 06:09:58;;;;;;;9.13;8.23;;;20.50;99.90;;;;;;5050751;28;20037;-66
2021/07/21 06:12:24;;;;;;;9.57;8.45;;;21.20;99.90;;;;;;5048290;28;20053;-67
2021/07/21 06:14:50;;;;;;;13.27;9.15;;;22.50;99.90;;;;;;5049615;28;20087;-67
2021/07/21 06:17:16;;;;;;;9.43;8.45;;;23.70;99.90;;;;;;5050433;28;20037;-66
2021/07/21 06:19:42;;;;;;;9.23;8.25;;;24.60;97.90;;;;;;5061691;28;20076;-67
2021/07/21 06:22:07;;;;;;;8.23;7.45;;;25.00;96.20;;;;;;5050937;28;20040;-67
2021/07/21 06:24:34;;;;;;;9.27;8.30;;;25.10;94.00;;;;;;5050200;28;20041;-67
2021/07/21 06:27:00;;;;;;;9.13;8.13;;;25.00;94.10;;;;;;5050828;28;20040;-67
2021/07/21 06:29:27;;;;;;;8.07;7.28;;;24.60;94.60;;;;;;5047399;28;20041;-67
2021/07/21 06:31:52;;;;;;;7.88;7.07;;;24.30;94.20;;;;;;5049655;28;20124;-66
2021/07/21 06:34:18;;;;;;;7.80;7.00;;;24.00;94.30;;;;;;5052241;28;20518;-67
2021/07/21 06:36:44;;;;;;;7.70;7.00;;;24.00;94.60;;;;;;5039892;28;20041;-67
2021/07/21 06:39:10;;;;;;;9.07;6.97;;;24.10;94.10;;;;;;5047746;28;20033;-74
2021/07/21 06:41:35;;;;;;;7.93;6.45;;;23.90;94.10;;;;;;5048887;28;20098;-74
2021/07/21 06:44:01;;;;;;;7.70;7.00;;;23.90;94.20;;;;;;5047782;28;20037;-73
2021/07/21 06:46:28;;;;;;;8.25;6.50;;;24.10;93.80;;;;;;5046628;28;20060;-74
2021/07/21 06:48:54;;;;;;;8.93;6.32;;;24.60;93.50;;;;;;5041660;28;20033;-73
2021/07/21 06:51:20;;;;;;;6.68;5.88;;;24.60;93.60;;;;;;5042832;28;20041;-73
2021/07/21 06:53:46;;;;;;;7.72;7.03;;;24.20;93.50;;;;;;5045143;28;20037;-73
2021/07/21 06:56:13;;;;;;;6.50;5.72;;;23.90;94.30;;;;;;5041440;28;20037;-73
2021/07/21 06:58:38;;;;;;;7.38;6.65;;;23.90;94.00;;;;;;5042484;28;20124;-73
2021/07/21 07:01:04;;;;;;;6.70;6.00;;;24.90;93.40;;;;;;5042674;28;20166;-73
2021/07/21 07:03:30;;;;;;;8.07;5.55;;;26.30;91.50;;;;;;5042840;28;20040;-73
2021/07/21 07:05:56;;;;;;;5.90;5.35;;;27.10;86.00;;;;;;5037650;28;20139;-73
2021/07/21 07:08:22;;;;;;;7.18;6.20;;;27.00;86.00;;;;;;5044439;28;20033;-68
2021/07/21 07:10:47;;;;;;;7.75;5.88;;;26.60;84.40;;;;;;5045627;28;20037;-74
2021/07/21 07:13:13;;;;;;;6.38;5.78;;;26.20;83.60;;;;;;5047652;28;20171;-73
2021/07/21 07:15:39;;;;;;;6.75;6.05;;;25.90;82.40;;;;;;5031079;28;20045;-73
2021/07/21 07:18:06;;;;;;;6.40;5.80;;;25.50;83.20;;;;;;5043508;28;20033;-74
2021/07/21 07:20:32;;;;;;;6.40;5.80;;;25.40;85.30;;;;;;5050254;28;20482;-70
2021/07/21 07:22:59;;;;;;;6.80;6.13;;;25.20;85.30;;;;;;5067802;28;20110;-74
2021/07/21 07:25:24;;;;;;;7.43;6.72;;;25.20;84.80;;;;;;5053219;28;20134;-75
2021/07/21 07:27:50;;;;;;;7.68;6.25;;;25.20;84.00;;;;;;5053958;28;20467;-75
2021/07/21 07:30:16;;;;;;;6.93;6.22;;;25.00;84.50;;;;;;5053515;28;20037;-75
2021/07/21 07:32:42;;;;;;;7.30;6.60;;;24.90;84.60;;;;;;5053859;28;20087;-74
2021/07/21 07:35:08;;;;;;;7.15;6.45;;;24.80;82.80;;;;;;5053612;28;20041;-74
2021/07/21 07:37:35;;;;;;;7.20;6.57;;;25.10;83.50;;;;;;5053514;28;20041;-74
2021/07/21 07:40:01;;;;;;;7.72;6.93;;;25.20;82.90;;;;;;5053018;28;20039;-73
2021/07/21 07:42:26;;;;;;;7.30;6.60;;;25.40;83.20;;;;;;5053452;28;20529;-74
2021/07/21 07:44:52;;;;;;;7.72;6.82;;;25.40;81.60;;;;;;5053480;28;20253;-74
2021/07/21 07:47:17;;;;;;;7.07;6.45;;;25.20;79.20;;;;;;5065202;28;20037;-74
2021/07/21 07:49:43;;;;;;;7.03;6.35;;;24.90;79.80;;;;;;5050833;28;20043;-74
2021/07/21 07:52:09;;;;;;;6.85;6.25;;;24.70;82.60;;;;;;5033411;28;20545;-74
2021/07/21 07:54:35;;;;;;;7.85;6.65;;;24.20;78.60;;;;;;5033556;28;20041;-74
2021/07/21 07:57:00;;;;;;;6.43;5.82;;;23.80;80.60;;;;;;5041265;28;20573;-74
2021/07/21 07:59:26;;;;;;;7.22;6.53;;;24.10;83.60;;;;;;5053264;28;20049;-74
2021/07/21 08:01:52;;;;;;;7.35;6.65;;;24.30;84.60;;;;;;5053345;28;20045;-70
2021/07/21 08:04:17;;;;;;;8.35;6.15;;;24.40;83.60;;;;;;5054113;28;20055;-70
2021/07/21 08:06:43;;;;;;;6.50;5.85;;;24.50;84.50;;;;;;5052613;28;20033;-70
2021/07/21 08:09:14;;;;;;;6.55;5.95;;;24.50;84.50;;;;;;5052863;28;20102;-70
2021/07/21 08:11:44;;;;;;;7.13;6.20;;;24.40;84.10;;;;;;5052992;28;20048;-70
2021/07/21 08:14:11;;;;;;;7.40;6.70;;;24.40;84.70;;;;;;5067607;28;20040;-70
2021/07/21 08:16:37;;;;;;;6.43;5.82;;;24.20;85.30;;;;;;5052629;28;20122;-69
2021/07/21 08:19:03;;;;;;;6.93;6.20;;;24.20;85.70;;;;;;5052923;28;20468;-70
2021/07/21 08:21:29;;;;;;;7.13;6.43;;;24.30;86.80;;;;;;5052981;28;20037;-69
2021/07/21 08:23:54;;;;;;;6.43;5.82;;;24.40;87.00;;;;;;5052686;28;20111;-70
2021/07/21 08:26:20;;;;;;;6.70;6.10;;;24.30;84.20;;;;;;5033544;28;20065;-70
2021/07/21 08:28:45;;;;;;;6.68;6.07;;;24.20;85.90;;;;;;5032779;28;20134;-70
2021/07/21 08:31:12;;;;;;;8.18;6.35;;;23.80;86.60;;;;;;5041491;28;20090;-70
2021/07/21 08:33:37;;;;;;;6.20;5.60;;;24.00;87.50;;;;;;5051969;28;20037;-70
2021/07/21 08:36:03;;;;;;;6.93;6.32;;;24.10;86.40;;;;;;5050798;28;20041;-70
2021/07/21 08:38:28;;;;;;;7.57;6.35;;;24.20;85.90;;;;;;5057130;28;20032;-70
2021/07/21 08:40:56;;;;;;;7.65;5.80;;;24.30;86.40;;;;;;5067691;28;20048;-65
2021/07/21 08:43:21;;;;;;;6.45;5.85;;;24.30;84.20;;;;;;5050818;28;20043;-70
2021/07/21 08:45:49;;;;;;;6.53;5.82;;;24.20;85.80;;;;;;5050154;28;20526;-70
2021/07/21 08:48:15;;;;;;;6.22;5.53;;;24.30;87.30;;;;;;5042788;28;20044;-71
2021/07/21 08:50:44;;;;;;;6.30;5.63;;;24.50;86.10;;;;;;5048338;28;20048;-70
2021/07/21 08:53:10;;;;;;;5.82;5.32;;;24.80;85.30;;;;;;5052097;28;20047;-71
2021/07/21 08:55:36;;;;;;;7.28;5.50;;;24.80;84.70;;;;;;5052344;28;20088;-71
2021/07/21 08:58:02;;;;;;;6.65;5.82;;;24.90;84.80;;;;;;5052330;28;20064;-71
2021/07/21 09:00:28;;;;;;;6.57;5.97;;;25.00;84.90;;;;;;5052029;28;20152;-71
2021/07/21 09:02:54;;;;;;;7.47;5.75;;;25.10;83.80;;;;;;5050607;28;20530;-71
2021/07/21 09:05:20;;;;;;;7.93;5.43;;;25.20;84.50;;;;;;5049889;28;20111;-71
2021/07/21 09:07:47;;;;;;;6.05;5.45;;;25.10;83.40;;;;;;5051859;28;20104;-71
2021/07/21 09:10:16;;;;;;;6.10;5.50;;;25.20;82.50;;;;;;5050980;28;20517;-71
2021/07/21 09:12:44;;;;;;;5.95;5.35;;;25.20;81.30;;;;;;5051834;28;20068;-71
2021/07/21 09:15:13;;;;;;;6.60;6.00;;;25.20;82.60;;;;;;5051726;28;20044;-71
2021/07/21 09:18:01;;;;;;;6.03;5.53;;;25.20;82.20;;;;;;5051761;28;20395;-71
2021/07/21 09:20:28;;;;;;;6.20;5.60;;;25.20;83.30;;;;;;5051829;28;20095;-71
2021/07/21 09:22:55;;;;;;;6.05;5.38;;;25.30;83.10;;;;;;5054899;28;20129;-71
2021/07/21 09:25:26;;;;;;;6.68;5.13;;;25.20;82.10;;;;;;5051181;28;20041;-71
2021/07/21 09:27:55;;;;;;;7.63;5.90;;;25.40;82.30;;;;;;5051100;28;20047;-70
2021/07/21 09:30:24;;;;;;;6.13;5.53;;;25.40;82.10;;;;;;5049711;28;20475;-71
2021/07/21 09:32:59;;;;;;;5.43;4.93;;;25.20;80.70;;;;;;5050587;28;20448;-71
2021/07/21 09:35:37;;;;;;;6.00;5.40;;;25.40;80.30;;;;;;5050792;28;20632;-71
2021/07/21 09:38:09;;;;;;;6.40;5.22;;;25.20;82.50;;;;;;5051471;28;20033;-71
2021/07/21 09:40:36;;;;;;;6.43;5.82;;;25.30;82.30;;;;;;5048874;28;20055;-70
2021/07/21 09:43:02;;;;;;;5.97;5.38;;;25.40;81.10;;;;;;5051427;28;20036;-70
2021/07/21 09:45:36;;;;;;;6.45;5.82;;;25.50;80.90;;;;;;5050968;28;20047;-71
2021/07/21 09:48:02;;;;;;;6.70;5.75;;;25.50;80.10;;;;;;5049821;28;20033;-71
2021/07/21 09:50:29;;;;;;;7.10;6.13;;;25.40;79.00;;;;;;5051009;28;20818;-71
2021/07/21 09:53:06;;;;;;;7.13;6.15;;;25.30;80.30;;;;;;5051254;28;20047;-71
2021/07/21 09:55:34;;;;;;;7.28;5.57;;;25.30;80.20;;;;;;5051483;28;20056;-71
2021/07/21 09:58:01;;;;;;;7.15;6.18;;;25.20;79.30;;;;;;5049586;28;20037;-67
2021/07/21 10:00:29;;;;;;;6.38;5.72;;;25.00;82.00;;;;;;5051056;28;20115;-67
2021/07/21 10:03:14;;;;;;;7.22;6.15;;;25.00;81.40;;;;;;5046362;28;20048;-67
2021/07/21 10:05:53;;;;;;;7.22;5.78;;;25.00;81.40;;;;;;5048101;28;20037;-67
2021/07/21 10:08:31;;;;;;;7.38;6.68;;;25.30;82.00;;;;;;5051142;28;20072;-67
2021/07/21 10:10:59;;;;;;;6.75;6.15;;;25.60;81.10;;;;;;5050874;28;20037;-67
2021/07/21 10:13:34;;;;;;;6.50;5.80;;;25.70;80.40;;;;;;5043698;28;20045;-67
2021/07/21 10:16:00;;;;;;;7.72;6.68;;;25.70;80.80;;;;;;5031188;28;20037;-67
2021/07/21 10:18:27;;;;;;;6.75;6.15;;;25.80;81.40;;;;;;5049451;28;20382;-66
2021/07/21 10:20:52;;;;;;;6.68;5.93;;;25.90;80.00;;;;;;5050525;28;20055;-66
2021/07/21 10:23:18;;;;;;;7.00;6.30;;;26.00;79.50;;;;;;5050865;28;20033;-66
2021/07/21 10:25:45;;;;;;;8.35;6.05;;;26.10;79.20;;;;;;5050549;28;20482;-67
2021/07/21 10:28:11;;;;;;;8.13;6.70;;;26.30;78.40;;;;;;5049626;28;20086;-67
2021/07/21 10:30:40;;;;;;;6.93;6.22;;;26.40;77.40;;;;;;5064986;28;20048;-67
2021/07/21 10:33:06;;;;;;;6.65;6.05;;;26.50;77.20;;;;;;5049618;28;20106;-67
2021/07/21 10:35:32;;;;;;;6.63;6.03;;;26.40;77.90;;;;;;5065314;28;20044;-67
2021/07/21 10:37:58;;;;;;;6.90;6.13;;;26.40;77.30;;;;;;5049112;28;20470;-67
2021/07/21 10:40:35;;;;;;;7.13;6.25;;;26.40;77.20;;;;;;5048215;28;20775;-67
2021/07/21 10:43:02;;;;;;;7.45;6.40;;;26.20;76.80;;;;;;5049938;28;20049;-67
2021/07/21 10:45:34;;;;;;;7.10;6.38;;;26.00;77.50;;;;;;5047933;28;20111;-66
2021/07/21 10:48:07;;;;;;;;;;;26.00;77.80;;;;;;5062532;28;20060;-66
2021/07/21 10:51:17;;;;;;;6.75;6.15;;;25.80;80.50;;;;;;5048210;28;19928;-66
2021/07/21 10:59:12;;;;;;;7.68;6.50;;;25.50;76.70;;;;;;5054554;28;19955;-70
2021/07/21 11:01:44;;;;;;;6.82;6.22;;;25.40;77.40;;;;;;5054427;28;20091;-70
2021/07/21 11:04:10;;;;;;;6.95;6.25;;;25.60;78.20;;;;;;5052954;28;20131;-67
2021/07/21 11:06:46;;;;;;;7.13;6.43;;;26.00;74.40;;;;;;5054216;28;20112;-70
2021/07/21 11:09:20;;;;;;;7.00;6.30;;;26.00;77.60;;;;;;5054252;28;20039;-70
2021/07/21 11:11:50;;;;;;;7.22;6.40;;;26.30;77.70;;;;;;5054243;28;20119;-70
2021/07/21 11:14:19;;;;;;;8.32;6.22;;;26.40;77.80;;;;;;5054249;28;20041;-71
2021/07/21 11:16:47;;;;;;;7.32;6.63;;;26.50;76.20;;;;;;5054098;28;20045;-71
2021/07/21 11:19:23;;;;;;;7.43;6.70;;;26.60;78.00;;;;;;5053961;28;20068;-70
2021/07/21 11:21:59;;;;;;;7.18;6.47;;;26.60;76.10;;;;;;5052500;28;20123;-70
2021/07/21 11:24:28;;;;;;;7.13;6.25;;;26.60;72.80;;;;;;5053860;28;20577;-70
2021/07/21 11:26:53;;;;;;;7.70;7.00;;;26.10;71.80;;;;;;5045502;28;20124;-70
2021/07/21 11:29:29;;;;;;;7.13;6.43;;;26.00;75.30;;;;;;5052864;28;20558;-70
2021/07/21 11:31:55;;;;;;;6.88;6.20;;;26.00;76.50;;;;;;5048695;28;20116;-70
2021/07/21 11:34:32;;;;;;;7.60;6.90;;;26.00;77.70;;;;;;5044679;28;20045;-70
2021/07/21 11:37:32;;;;;;;7.22;6.53;;;25.90;77.70;;;;;;5053382;28;20033;-71
2021/07/21 11:39:58;;;;;;;7.10;6.45;;;25.80;78.80;;;;;;5050284;28;20132;-71
2021/07/21 11:42:29;;;;;;;7.63;6.82;;;25.50;78.70;;;;;;5053509;28;20148;-71
2021/07/21 11:45:11;;;;;;;7.13;6.40;;;25.40;75.60;;;;;;5053116;28;20029;-71
2021/07/21 11:47:39;;;;;;;6.85;5.88;;;25.00;75.90;;;;;;5032777;28;20310;-71
2021/07/21 11:50:45;;;;;;;7.32;6.40;;;25.00;78.20;;;;;;5046472;28;20029;-71
2021/07/21 11:53:11;;;;;;;7.80;6.75;;;24.60;77.00;;;;;;5010943;28;20057;-71
2021/07/21 11:55:38;;;;;;;7.55;6.72;;;24.60;80.90;;;;;;5074774;22;20056;-63
2021/07/21 11:58:12;;;;;;;8.32;6.57;;;24.70;82.00;;;;;;5073214;28;20047;-64
2021/07/21 12:00:38;;;;;;;7.10;6.40;;;24.60;80.40;;;;;;5072878;28;20033;-64
2021/07/21 12:03:06;;;;;;;7.78;6.97;;;24.80;81.50;;;;;;5067894;28;20082;-64
2021/07/21 12:05:33;;;;;;;8.07;6.53;;;25.00;81.30;;;;;;5064155;28;20466;-64
2021/07/21 12:08:04;;;;;;;10.75;6.32;;;25.10;81.90;;;;;;5073079;28;20041;-64
2021/07/21 12:10:31;;;;;;;6.75;6.15;;;25.20;79.30;;;;;;5062594;28;20036;-64
2021/07/21 12:13:06;;;;;;;7.40;6.57;;;25.40;81.80;;;;;;5072241;28;20485;-64
2021/07/21 12:15:32;;;;;;;7.63;6.65;;;25.50;79.30;;;;;;5071764;28;20036;-64
2021/07/21 12:18:07;;;;;;;7.50;6.60;;;25.60;74.30;;;;;;5071714;28;20366;-64
2021/07/21 12:20:33;;;;;;;7.18;6.47;;;25.40;77.50;;;;;;5077214;28;20051;-64
2021/07/21 12:22:59;;;;;;;7.13;6.43;;;25.30;78.40;;;;;;5071192;28;20033;-66
2021/07/21 12:25:24;;;;;;;7.28;6.13;;;25.30;78.90;;;;;;5072178;28;20161;-67
2021/07/21 12:27:51;;;;;;;7.10;6.10;;;25.30;78.60;;;;;;5078330;28;20032;-66
2021/07/21 12:30:20;;;;;;;7.45;6.30;;;25.30;79.20;;;;;;5075915;28;20439;-66
2021/07/21 12:32:46;;;;;;;6.80;6.20;;;25.20;78.40;;;;;;5072032;28;20032;-66
2021/07/21 12:35:15;;;;;;;6.38;5.80;;;25.20;79.50;;;;;;5071785;28;20094;-66
2021/07/21 12:37:46;;;;;;;6.60;5.97;;;25.40;80.10;;;;;;5070581;28;20036;-66
2021/07/21 12:40:23;;;;;;;7.25;6.20;;;25.50;81.00;;;;;;5072180;28;20071;-66
2021/07/21 12:42:52;;;;;;;7.25;6.57;;;25.50;80.30;;;;;;5071710;28;20037;-66
2021/07/21 12:45:20;;;;;;;7.63;6.90;;;25.60;79.70;;;;;;5071948;28;20035;-68
2021/07/21 12:47:48;;;;;;;7.00;6.30;;;25.50;80.50;;;;;;5071982;28;20461;-66
2021/07/21 12:50:22;;;;;;;7.18;6.53;;;25.60;80.00;;;;;;5068197;28;20036;-67
2021/07/21 12:52:52;;;;;;;6.78;6.00;;;25.80;80.50;;;;;;5070475;28;20036;-67
2021/07/21 12:55:31;;;;;;;7.00;6.30;;;25.90;81.60;;;;;;5072130;28;20127;-67
2021/07/21 12:58:05;;;;;;;7.95;7.15;;;26.00;80.30;;;;;;5072468;28;20040;-67